sensor_id;sensor_type;location;lat;lon;timestamp;temperature;humidity
41256;DHT22;26989;45.524;10.938;2022-09-02T00:01:23;20.80;96.60
41256;DHT22;26989;45.524;10.938;2022-09-02T00:03:51;20.70;97.50
41256;DHT22;26989;45.524;10.938;2022-09-02T00:06:20;20.60;97.90
41256;DHT22;26989;45.524;10.938;2022-09-02T00:08:47;20.60;97.80
41256;DHT22;26989;45.524;10.938;2022-09-02T00:11:19;20.50;97.40
41256;DHT22;26989;45.524;10.938;2022-09-02T00:13:47;20.50;97.70
41256;DHT22;26989;45.524;10.938;2022-09-02T00:16:14;20.40;98.00
41256;DHT22;26989;45.524;10.938;2022-09-02T00:18:43;20.40;98.10
41256;DHT22;26989;45.524;10.938;2022-09-02T00:21:13;20.40;98.00
41256;DHT22;26989;45.524;10.938;2022-09-02T00:23:42;20.40;98.00
41256;DHT22;26989;45.524;10.938;2022-09-02T00:26:11;20.40;98.00
41256;DHT22;26989;45.524;10.938;2022-09-02T00:28:40;20.40;98.00
41256;DHT22;26989;45.524;10.938;2022-09-02T00:31:14;20.40;98.10
41256;DHT22;26989;45.524;10.938;2022-09-02T00:33:42;20.40;98.00
41256;DHT22;26989;45.524;10.938;2022-09-02T00:36:10;20.40;97.80
41256;DHT22;26989;45.524;10.938;2022-09-02T00:38:38;20.30;98.00
41256;DHT22;26989;45.524;10.938;2022-09-02T00:41:07;20.30;98.10
41256;DHT22;26989;45.524;10.938;2022-09-02T00:43:39;20.40;98.00
41256;DHT22;26989;45.524;10.938;2022-09-02T00:46:06;20.30;98.50
41256;DHT22;26989;45.524;10.938;2022-09-02T00:48:36;20.30;98.50
41256;DHT22;26989;45.524;10.938;2022-09-02T00:51:07;20.40;97.80
41256;DHT22;26989;45.524;10.938;2022-09-02T00:53:34;20.40;97.90
41256;DHT22;26989;45.524;10.938;2022-09-02T00:56:09;20.40;98.30
41256;DHT22;26989;45.524;10.938;2022-09-02T00:58:39;20.40;98.10
41256;DHT22;26989;45.524;10.938;2022-09-02T01:01:09;20.50;97.70
41256;DHT22;26989;45.524;10.938;2022-09-02T01:03:39;20.50;97.70
41256;DHT22;26989;45.524;10.938;2022-09-02T01:06:10;20.50;98.10
41256;DHT22;26989;45.524;10.938;2022-09-02T01:08:45;20.40;98.30
41256;DHT22;26989;45.524;10.938;2022-09-02T01:11:13;20.30;98.20
41256;DHT22;26989;45.524;10.938;2022-09-02T01:13:41;20.30;98.10
41256;DHT22;26989;45.524;10.938;2022-09-02T01:16:23;20.40;97.70
41256;DHT22;26989;45.524;10.938;2022-09-02T01:18:53;20.50;97.10
41256;DHT22;26989;45.524;10.938;2022-09-02T01:21:21;20.50;97.10
41256;DHT22;26989;45.524;10.938;2022-09-02T01:23:50;20.50;97.00
41256;DHT22;26989;45.524;10.938;2022-09-02T01:26:17;20.50;97.20
41256;DHT22;26989;45.524;10.938;2022-09-02T01:28:44;20.40;97.30
41256;DHT22;26989;45.524;10.938;2022-09-02T01:31:11;20.40;97.30
41256;DHT22;26989;45.524;10.938;2022-09-02T01:33:38;20.30;97.80
41256;DHT22;26989;45.524;10.938;2022-09-02T01:36:05;20.40;97.30
41256;DHT22;26989;45.524;10.938;2022-09-02T01:38:33;20.40;97.10
41256;DHT22;26989;45.524;10.938;2022-09-02T01:41:00;20.30;97.60
41256;DHT22;26989;45.524;10.938;2022-09-02T01:43:27;20.20;97.80
41256;DHT22;26989;45.524;10.938;2022-09-02T01:45:57;20.20;98.00
41256;DHT22;26989;45.524;10.938;2022-09-02T01:48:24;20.20;97.10
41256;DHT22;26989;45.524;10.938;2022-09-02T01:50:54;20.30;97.40
41256;DHT22;26989;45.524;10.938;2022-09-02T01:53:22;20.20;97.70
41256;DHT22;26989;45.524;10.938;2022-09-02T01:55:49;20.10;97.90
41256;DHT22;26989;45.524;10.938;2022-09-02T01:58:16;20.10;97.90
41256;DHT22;26989;45.524;10.938;2022-09-02T02:00:44;20.20;97.40
41256;DHT22;26989;45.524;10.938;2022-09-02T02:03:11;20.20;97.80
41256;DHT22;26989;45.524;10.938;2022-09-02T02:05:38;20.20;97.90
41256;DHT22;26989;45.524;10.938;2022-09-02T02:08:05;20.10;98.00
41256;DHT22;26989;45.524;10.938;2022-09-02T02:10:32;20.10;98.00
41256;DHT22;26989;45.524;10.938;2022-09-02T02:13:00;20.10;97.70
41256;DHT22;26989;45.524;10.938;2022-09-02T02:15:28;20.20;97.70
41256;DHT22;26989;45.524;10.938;2022-09-02T02:17:53;20.00;98.40
41256;DHT22;26989;45.524;10.938;2022-09-02T02:20:20;19.90;98.90
41256;DHT22;26989;45.524;10.938;2022-09-02T02:22:48;19.90;98.90
41256;DHT22;26989;45.524;10.938;2022-09-02T02:25:15;19.70;99.30
41256;DHT22;26989;45.524;10.938;2022-09-02T02:27:43;19.70;98.90
41256;DHT22;26989;45.524;10.938;2022-09-02T02:30:12;19.70;99.10
41256;DHT22;26989;45.524;10.938;2022-09-02T02:32:40;19.60;99.40
41256;DHT22;26989;45.524;10.938;2022-09-02T02:35:08;19.60;99.40
41256;DHT22;26989;45.524;10.938;2022-09-02T02:37:36;19.70;98.90
41256;DHT22;26989;45.524;10.938;2022-09-02T02:40:04;19.70;99.10
41256;DHT22;26989;45.524;10.938;2022-09-02T02:42:32;19.80;98.80
41256;DHT22;26989;45.524;10.938;2022-09-02T02:44:59;19.70;99.10
41256;DHT22;26989;45.524;10.938;2022-09-02T02:47:26;19.80;98.70
41256;DHT22;26989;45.524;10.938;2022-09-02T02:49:53;19.80;99.00
41256;DHT22;26989;45.524;10.938;2022-09-02T02:52:20;19.70;99.30
41256;DHT22;26989;45.524;10.938;2022-09-02T02:54:47;19.60;99.50
41256;DHT22;26989;45.524;10.938;2022-09-02T02:57:14;19.60;99.60
41256;DHT22;26989;45.524;10.938;2022-09-02T02:59:41;19.60;99.60
41256;DHT22;26989;45.524;10.938;2022-09-02T03:02:08;19.50;99.20
41256;DHT22;26989;45.524;10.938;2022-09-02T03:04:36;19.60;99.40
41256;DHT22;26989;45.524;10.938;2022-09-02T03:07:03;19.50;99.50
41256;DHT22;26989;45.524;10.938;2022-09-02T03:09:32;19.50;99.60
41256;DHT22;26989;45.524;10.938;2022-09-02T03:11:59;19.40;99.80
41256;DHT22;26989;45.524;10.938;2022-09-02T03:14:26;19.40;99.40
41256;DHT22;26989;45.524;10.938;2022-09-02T03:16:53;19.50;98.90
41256;DHT22;26989;45.524;10.938;2022-09-02T03:19:20;19.60;98.80
41256;DHT22;26989;45.524;10.938;2022-09-02T03:21:47;19.50;99.30
41256;DHT22;26989;45.524;10.938;2022-09-02T03:24:14;19.20;99.90
41256;DHT22;26989;45.524;10.938;2022-09-02T03:26:41;19.20;99.90
41256;DHT22;26989;45.524;10.938;2022-09-02T03:29:08;19.10;99.90
41256;DHT22;26989;45.524;10.938;2022-09-02T03:31:35;18.90;99.90
41256;DHT22;26989;45.524;10.938;2022-09-02T03:34:03;18.70;99.90
41256;DHT22;26989;45.524;10.938;2022-09-02T03:36:37;18.70;99.90
41256;DHT22;26989;45.524;10.938;2022-09-02T03:39:07;18.60;99.90
41256;DHT22;26989;45.524;10.938;2022-09-02T03:41:35;18.60;99.90
41256;DHT22;26989;45.524;10.938;2022-09-02T03:44:02;18.50;99.90
41256;DHT22;26989;45.524;10.938;2022-09-02T03:46:29;18.50;99.90
41256;DHT22;26989;45.524;10.938;2022-09-02T03:48:57;18.30;99.90
41256;DHT22;26989;45.524;10.938;2022-09-02T03:51:24;18.30;99.90
41256;DHT22;26989;45.524;10.938;2022-09-02T03:53:51;18.20;99.90
41256;DHT22;26989;45.524;10.938;2022-09-02T03:56:19;18.20;99.90
41256;DHT22;26989;45.524;10.938;2022-09-02T03:58:48;18.10;99.90
41256;DHT22;26989;45.524;10.938;2022-09-02T04:01:18;18.10;99.90
41256;DHT22;26989;45.524;10.938;2022-09-02T04:03:46;18.10;99.90
41256;DHT22;26989;45.524;10.938;2022-09-02T04:06:16;18.00;99.90
41256;DHT22;26989;45.524;10.938;2022-09-02T04:08:43;18.00;99.90
41256;DHT22;26989;45.524;10.938;2022-09-02T04:11:13;17.90;99.90
41256;DHT22;26989;45.524;10.938;2022-09-02T04:13:42;17.70;99.90
41256;DHT22;26989;45.524;10.938;2022-09-02T04:16:11;17.90;99.90
41256;DHT22;26989;45.524;10.938;2022-09-02T04:18:39;17.80;99.90
41256;DHT22;26989;45.524;10.938;2022-09-02T04:21:07;17.90;99.90
41256;DHT22;26989;45.524;10.938;2022-09-02T04:23:34;17.90;99.90
41256;DHT22;26989;45.524;10.938;2022-09-02T04:26:07;17.90;99.90
41256;DHT22;26989;45.524;10.938;2022-09-02T04:28:34;18.00;99.90
41256;DHT22;26989;45.524;10.938;2022-09-02T04:31:10;17.90;99.90
41256;DHT22;26989;45.524;10.938;2022-09-02T04:33:38;17.90;99.90
41256;DHT22;26989;45.524;10.938;2022-09-02T04:36:07;17.80;99.90
41256;DHT22;26989;45.524;10.938;2022-09-02T04:38:38;17.80;99.90
41256;DHT22;26989;45.524;10.938;2022-09-02T04:41:12;18.00;99.90
41256;DHT22;26989;45.524;10.938;2022-09-02T04:43:39;18.10;99.90
41256;DHT22;26989;45.524;10.938;2022-09-02T04:46:09;18.20;99.90
41256;DHT22;26989;45.524;10.938;2022-09-02T04:48:37;18.10;99.90
41256;DHT22;26989;45.524;10.938;2022-09-02T04:51:05;18.10;99.90
41256;DHT22;26989;45.524;10.938;2022-09-02T04:53:33;18.20;99.90
41256;DHT22;26989;45.524;10.938;2022-09-02T04:56:09;18.30;99.90
41256;DHT22;26989;45.524;10.938;2022-09-02T04:58:38;18.50;99.90
41256;DHT22;26989;45.524;10.938;2022-09-02T05:01:10;18.40;99.90
41256;DHT22;26989;45.524;10.938;2022-09-02T05:03:41;18.20;99.90
41256;DHT22;26989;45.524;10.938;2022-09-02T05:06:10;18.20;99.90
41256;DHT22;26989;45.524;10.938;2022-09-02T05:08:37;18.20;99.90
41256;DHT22;26989;45.524;10.938;2022-09-02T05:11:11;18.40;99.90
41256;DHT22;26989;45.524;10.938;2022-09-02T05:13:40;18.40;99.90
41256;DHT22;26989;45.524;10.938;2022-09-02T05:16:07;18.50;99.90
41256;DHT22;26989;45.524;10.938;2022-09-02T05:18:34;18.50;99.90
41256;DHT22;26989;45.524;10.938;2022-09-02T05:21:04;18.60;99.90
41256;DHT22;26989;45.524;10.938;2022-09-02T05:23:32;18.60;99.90
41256;DHT22;26989;45.524;10.938;2022-09-02T05:26:07;18.50;99.90
41256;DHT22;26989;45.524;10.938;2022-09-02T05:28:35;18.70;99.90
41256;DHT22;26989;45.524;10.938;2022-09-02T05:31:08;18.80;99.90
41256;DHT22;26989;45.524;10.938;2022-09-02T05:33:37;18.80;99.90
41256;DHT22;26989;45.524;10.938;2022-09-02T05:36:26;19.00;99.90
41256;DHT22;26989;45.524;10.938;2022-09-02T05:38:53;19.00;99.90
41256;DHT22;26989;45.524;10.938;2022-09-02T05:41:21;18.80;99.90
41256;DHT22;26989;45.524;10.938;2022-09-02T05:43:56;18.80;99.90
41256;DHT22;26989;45.524;10.938;2022-09-02T05:46:29;19.20;99.90
41256;DHT22;26989;45.524;10.938;2022-09-02T05:48:57;19.40;99.90
41256;DHT22;26989;45.524;10.938;2022-09-02T05:51:48;19.90;99.90
41256;DHT22;26989;45.524;10.938;2022-09-02T05:54:28;19.90;99.30
41256;DHT22;26989;45.524;10.938;2022-09-02T05:56:58;19.70;99.30
41256;DHT22;26989;45.524;10.938;2022-09-02T05:59:27;22.30;97.30
41256;DHT22;26989;45.524;10.938;2022-09-02T06:01:54;24.10;94.70
41256;DHT22;26989;45.524;10.938;2022-09-02T06:04:22;23.20;94.40
41256;DHT22;26989;45.524;10.938;2022-09-02T06:06:50;22.50;95.80
41256;DHT22;26989;45.524;10.938;2022-09-02T06:09:20;23.10;94.50
41256;DHT22;26989;45.524;10.938;2022-09-02T06:11:49;24.50;93.50
41256;DHT22;26989;45.524;10.938;2022-09-02T06:14:18;24.70;92.50
41256;DHT22;26989;45.524;10.938;2022-09-02T06:16:48;23.80;92.70
41256;DHT22;26989;45.524;10.938;2022-09-02T06:19:16;25.30;92.10
41256;DHT22;26989;45.524;10.938;2022-09-02T06:21:47;26.50;91.60
41256;DHT22;26989;45.524;10.938;2022-09-02T06:24:14;27.30;91.10
41256;DHT22;26989;45.524;10.938;2022-09-02T06:26:41;27.70;90.40
41256;DHT22;26989;45.524;10.938;2022-09-02T06:29:09;27.70;90.10
41256;DHT22;26989;45.524;10.938;2022-09-02T06:31:40;27.80;90.20
41256;DHT22;26989;45.524;10.938;2022-09-02T06:34:07;28.40;89.20
41256;DHT22;26989;45.524;10.938;2022-09-02T06:36:39;29.20;86.90
41256;DHT22;26989;45.524;10.938;2022-09-02T06:39:08;29.70;85.90
41256;DHT22;26989;45.524;10.938;2022-09-02T06:41:38;28.90;86.60
41256;DHT22;26989;45.524;10.938;2022-09-02T06:44:06;26.90;88.90
41256;DHT22;26989;45.524;10.938;2022-09-02T06:46:38;25.70;90.20
41256;DHT22;26989;45.524;10.938;2022-09-02T06:49:07;24.50;90.80
41256;DHT22;26989;45.524;10.938;2022-09-02T06:51:39;23.80;92.00
41256;DHT22;26989;45.524;10.938;2022-09-02T06:54:09;23.30;92.70
41256;DHT22;26989;45.524;10.938;2022-09-02T06:56:40;22.50;93.70
41256;DHT22;26989;45.524;10.938;2022-09-02T06:59:12;22.00;95.00
41256;DHT22;26989;45.524;10.938;2022-09-02T07:01:39;21.90;95.80
41256;DHT22;26989;45.524;10.938;2022-09-02T07:04:06;21.90;95.10
41256;DHT22;26989;45.524;10.938;2022-09-02T07:06:53;21.80;94.40
41256;DHT22;26989;45.524;10.938;2022-09-02T07:09:23;22.30;95.10
41256;DHT22;26989;45.524;10.938;2022-09-02T07:11:58;22.70;93.90
41256;DHT22;26989;45.524;10.938;2022-09-02T07:14:30;22.90;93.40
41256;DHT22;26989;45.524;10.938;2022-09-02T07:16:57;23.50;93.10
41256;DHT22;26989;45.524;10.938;2022-09-02T07:19:25;23.90;92.80
41256;DHT22;26989;45.524;10.938;2022-09-02T07:21:52;24.20;91.90
41256;DHT22;26989;45.524;10.938;2022-09-02T07:24:20;24.40;91.60
41256;DHT22;26989;45.524;10.938;2022-09-02T07:26:48;24.40;92.10
41256;DHT22;26989;45.524;10.938;2022-09-02T07:29:21;24.60;92.20
41256;DHT22;26989;45.524;10.938;2022-09-02T07:31:47;24.90;91.80
41256;DHT22;26989;45.524;10.938;2022-09-02T07:34:15;24.70;90.10
41256;DHT22;26989;45.524;10.938;2022-09-02T07:36:42;24.80;91.20
41256;DHT22;26989;45.524;10.938;2022-09-02T07:39:11;24.70;90.90
41256;DHT22;26989;45.524;10.938;2022-09-02T07:41:40;24.50;90.70
41256;DHT22;26989;45.524;10.938;2022-09-02T07:44:08;24.40;91.10
41256;DHT22;26989;45.524;10.938;2022-09-02T07:46:36;24.40;90.70
41256;DHT22;26989;45.524;10.938;2022-09-02T07:49:06;24.30;90.80
41256;DHT22;26989;45.524;10.938;2022-09-02T07:51:38;24.50;91.70
41256;DHT22;26989;45.524;10.938;2022-09-02T07:54:07;24.90;91.40
41256;DHT22;26989;45.524;10.938;2022-09-02T07:56:35;25.10;91.50
41256;DHT22;26989;45.524;10.938;2022-09-02T07:59:02;25.40;91.00
41256;DHT22;26989;45.524;10.938;2022-09-02T08:01:30;25.40;90.90
41256;DHT22;26989;45.524;10.938;2022-09-02T08:03:57;25.30;90.40
41256;DHT22;26989;45.524;10.938;2022-09-02T08:06:29;25.00;90.50
41256;DHT22;26989;45.524;10.938;2022-09-02T08:09:03;25.00;90.30
41256;DHT22;26989;45.524;10.938;2022-09-02T08:11:30;24.80;91.40
41256;DHT22;26989;45.524;10.938;2022-09-02T08:13:58;25.00;91.60
41256;DHT22;26989;45.524;10.938;2022-09-02T08:16:26;24.90;91.70
41256;DHT22;26989;45.524;10.938;2022-09-02T08:18:54;24.70;91.40
41256;DHT22;26989;45.524;10.938;2022-09-02T08:21:21;24.60;90.90
41256;DHT22;26989;45.524;10.938;2022-09-02T08:23:48;24.30;91.10
41256;DHT22;26989;45.524;10.938;2022-09-02T08:26:17;24.20;91.70
41256;DHT22;26989;45.524;10.938;2022-09-02T08:28:44;24.30;91.30
41256;DHT22;26989;45.524;10.938;2022-09-02T08:31:11;24.10;91.90
41256;DHT22;26989;45.524;10.938;2022-09-02T08:33:38;24.00;92.30
41256;DHT22;26989;45.524;10.938;2022-09-02T08:36:06;24.10;91.60
41256;DHT22;26989;45.524;10.938;2022-09-02T08:38:34;24.20;91.60
41256;DHT22;26989;45.524;10.938;2022-09-02T08:44:00;24.30;91.90
41256;DHT22;26989;45.524;10.938;2022-09-02T08:46:30;24.40;91.80
41256;DHT22;26989;45.524;10.938;2022-09-02T08:49:51;24.30;91.40
41256;DHT22;26989;45.524;10.938;2022-09-02T08:52:02;23.80;92.00
41256;DHT22;26989;45.524;10.938;2022-09-02T08:56:59;24.00;91.40
41256;DHT22;26989;45.524;10.938;2022-09-02T08:59:28;24.20;91.40
41256;DHT22;26989;45.524;10.938;2022-09-02T09:07:55;24.50;91.50
41256;DHT22;26989;45.524;10.938;2022-09-02T09:22:17;24.90;90.60
41256;DHT22;26989;45.524;10.938;2022-09-02T09:24:48;25.10;90.90
41256;DHT22;26989;45.524;10.938;2022-09-02T09:27:18;25.00;90.80
41256;DHT22;26989;45.524;10.938;2022-09-02T09:29:48;25.00;90.40
41256;DHT22;26989;45.524;10.938;2022-09-02T09:34:58;24.90;90.60
41256;DHT22;26989;45.524;10.938;2022-09-02T09:37:39;25.60;90.70
41256;DHT22;26989;45.524;10.938;2022-09-02T09:45:41;26.80;87.20
41256;DHT22;26989;45.524;10.938;2022-09-02T09:48:23;27.00;87.90
41256;DHT22;26989;45.524;10.938;2022-09-02T09:53:32;26.80;87.60
41256;DHT22;26989;45.524;10.938;2022-09-02T09:56:04;26.80;86.10
41256;DHT22;26989;45.524;10.938;2022-09-02T10:01:18;26.70;85.70
41256;DHT22;26989;45.524;10.938;2022-09-02T10:09:00;26.60;86.10
41256;DHT22;26989;45.524;10.938;2022-09-02T10:11:29;26.90;84.80
41256;DHT22;26989;45.524;10.938;2022-09-02T10:14:08;26.90;84.90
41256;DHT22;26989;45.524;10.938;2022-09-02T10:19:54;26.30;86.40
41256;DHT22;26989;45.524;10.938;2022-09-02T10:25:47;26.30;85.20
41256;DHT22;26989;45.524;10.938;2022-09-02T10:28:56;26.10;84.90
41256;DHT22;26989;45.524;10.938;2022-09-02T10:34:25;25.50;86.60
41256;DHT22;26989;45.524;10.938;2022-09-02T10:37:18;25.60;86.70
41256;DHT22;26989;45.524;10.938;2022-09-02T10:40:16;25.70;87.60
41256;DHT22;26989;45.524;10.938;2022-09-02T10:45:35;25.50;87.70
41256;DHT22;26989;45.524;10.938;2022-09-02T10:48:14;25.20;89.30
41256;DHT22;26989;45.524;10.938;2022-09-02T10:59:37;24.60;89.70
41256;DHT22;26989;45.524;10.938;2022-09-02T11:02:19;25.00;88.60
41256;DHT22;26989;45.524;10.938;2022-09-02T11:04:52;25.20;88.10
41256;DHT22;26989;45.524;10.938;2022-09-02T11:07:27;25.20;87.80
41256;DHT22;26989;45.524;10.938;2022-09-02T11:09:59;25.50;87.80
41256;DHT22;26989;45.524;10.938;2022-09-02T11:12:39;25.60;86.80
41256;DHT22;26989;45.524;10.938;2022-09-02T11:15:30;25.50;87.40
41256;DHT22;26989;45.524;10.938;2022-09-02T11:21:04;25.10;86.60
41256;DHT22;26989;45.524;10.938;2022-09-02T11:23:40;25.10;86.70
41256;DHT22;26989;45.524;10.938;2022-09-02T11:26:15;25.10;88.50
41256;DHT22;26989;45.524;10.938;2022-09-02T11:28:51;25.30;86.60
41256;DHT22;26989;45.524;10.938;2022-09-02T11:31:31;25.30;85.70
41256;DHT22;26989;45.524;10.938;2022-09-02T11:34:33;25.40;86.40
41256;DHT22;26989;45.524;10.938;2022-09-02T11:37:06;25.60;85.60
41256;DHT22;26989;45.524;10.938;2022-09-02T11:39:37;25.40;87.00
41256;DHT22;26989;45.524;10.938;2022-09-02T11:45:21;25.40;86.60
41256;DHT22;26989;45.524;10.938;2022-09-02T11:53:44;25.30;84.90
41256;DHT22;26989;45.524;10.938;2022-09-02T11:56:22;25.10;84.20
41256;DHT22;26989;45.524;10.938;2022-09-02T11:58:51;24.80;86.90
41256;DHT22;26989;45.524;10.938;2022-09-02T12:01:22;25.10;86.70
41256;DHT22;26989;45.524;10.938;2022-09-02T12:15:25;24.90;86.40
41256;DHT22;26989;45.524;10.938;2022-09-02T12:23:08;25.90;86.40
41256;DHT22;26989;45.524;10.938;2022-09-02T12:25:46;26.00;85.50
41256;DHT22;26989;45.524;10.938;2022-09-02T12:28:26;25.90;86.50
41256;DHT22;26989;45.524;10.938;2022-09-02T12:33:29;25.90;85.00
41256;DHT22;26989;45.524;10.938;2022-09-02T12:35:57;25.90;86.30
41256;DHT22;26989;45.524;10.938;2022-09-02T12:38:36;25.80;86.20
41256;DHT22;26989;45.524;10.938;2022-09-02T12:49:04;25.70;85.10
41256;DHT22;26989;45.524;10.938;2022-09-02T12:52:04;25.80;85.00
41256;DHT22;26989;45.524;10.938;2022-09-02T12:57:07;25.50;85.00
41256;DHT22;26989;45.524;10.938;2022-09-02T12:59:37;25.60;84.80
41256;DHT22;26989;45.524;10.938;2022-09-02T13:10:46;25.40;86.40
41256;DHT22;26989;45.524;10.938;2022-09-02T13:14:24;25.40;85.70
41256;DHT22;26989;45.524;10.938;2022-09-02T13:17:02;25.50;86.60
41256;DHT22;26989;45.524;10.938;2022-09-02T13:34:00;25.90;85.10
41256;DHT22;26989;45.524;10.938;2022-09-02T13:36:35;25.50;85.70
41256;DHT22;26989;45.524;10.938;2022-09-02T13:39:22;25.40;85.90
41256;DHT22;26989;45.524;10.938;2022-09-02T13:41:49;25.70;87.20
41256;DHT22;26989;45.524;10.938;2022-09-02T13:44:24;26.00;86.70
41256;DHT22;26989;45.524;10.938;2022-09-02T13:49:36;26.40;85.80
41256;DHT22;26989;45.524;10.938;2022-09-02T13:52:06;26.60;84.80
41256;DHT22;26989;45.524;10.938;2022-09-02T13:54:48;26.40;85.40
41256;DHT22;26989;45.524;10.938;2022-09-02T13:57:21;26.40;85.90
41256;DHT22;26989;45.524;10.938;2022-09-02T13:59:55;26.50;84.70
41256;DHT22;26989;45.524;10.938;2022-09-02T14:02:33;26.50;85.60
41256;DHT22;26989;45.524;10.938;2022-09-02T14:07:38;26.20;85.50
41256;DHT22;26989;45.524;10.938;2022-09-02T14:10:08;26.30;86.50
41256;DHT22;26989;45.524;10.938;2022-09-02T14:12:37;26.50;87.40
41256;DHT22;26989;45.524;10.938;2022-09-02T14:15:07;26.40;85.40
41256;DHT22;26989;45.524;10.938;2022-09-02T14:17:35;26.10;86.30
41256;DHT22;26989;45.524;10.938;2022-09-02T14:20:18;26.20;88.00
41256;DHT22;26989;45.524;10.938;2022-09-02T14:22:56;26.50;86.80
41256;DHT22;26989;45.524;10.938;2022-09-02T14:25:33;26.60;87.50
41256;DHT22;26989;45.524;10.938;2022-09-02T14:28:17;26.70;86.40
41256;DHT22;26989;45.524;10.938;2022-09-02T14:30:54;26.90;86.80
41256;DHT22;26989;45.524;10.938;2022-09-02T14:38:50;26.90;84.90
41256;DHT22;26989;45.524;10.938;2022-09-02T14:41:24;27.00;85.10
41256;DHT22;26989;45.524;10.938;2022-09-02T14:44:07;26.60;85.60
41256;DHT22;26989;45.524;10.938;2022-09-02T14:46:46;26.70;86.00
41256;DHT22;26989;45.524;10.938;2022-09-02T14:49:29;26.40;87.20
41256;DHT22;26989;45.524;10.938;2022-09-02T14:51:59;26.70;86.90
41256;DHT22;26989;45.524;10.938;2022-09-02T14:54:44;26.90;85.90
41256;DHT22;26989;45.524;10.938;2022-09-02T14:57:30;26.90;85.40
41256;DHT22;26989;45.524;10.938;2022-09-02T15:00:10;26.80;86.40
41256;DHT22;26989;45.524;10.938;2022-09-02T15:02:40;26.70;85.40
41256;DHT22;26989;45.524;10.938;2022-09-02T15:05:10;26.90;84.90
41256;DHT22;26989;45.524;10.938;2022-09-02T15:07:39;26.90;85.00
41256;DHT22;26989;45.524;10.938;2022-09-02T15:10:06;26.80;86.30
41256;DHT22;26989;45.524;10.938;2022-09-02T15:12:41;26.60;84.00
41256;DHT22;26989;45.524;10.938;2022-09-02T15:15:09;26.60;85.00
41256;DHT22;26989;45.524;10.938;2022-09-02T15:17:35;26.70;86.10
41256;DHT22;26989;45.524;10.938;2022-09-02T15:20:02;26.70;85.70
41256;DHT22;26989;45.524;10.938;2022-09-02T15:22:31;26.80;86.20
41256;DHT22;26989;45.524;10.938;2022-09-02T15:24:58;26.90;86.10
41256;DHT22;26989;45.524;10.938;2022-09-02T15:27:25;26.80;85.50
41256;DHT22;26989;45.524;10.938;2022-09-02T15:29:52;26.80;85.20
41256;DHT22;26989;45.524;10.938;2022-09-02T15:32:19;26.50;88.00
41256;DHT22;26989;45.524;10.938;2022-09-02T15:34:45;26.70;86.00
41256;DHT22;26989;45.524;10.938;2022-09-02T15:37:13;26.90;87.70
41256;DHT22;26989;45.524;10.938;2022-09-02T15:39:39;26.70;86.60
41256;DHT22;26989;45.524;10.938;2022-09-02T15:42:07;26.50;85.70
41256;DHT22;26989;45.524;10.938;2022-09-02T15:44:34;26.30;86.00
41256;DHT22;26989;45.524;10.938;2022-09-02T15:47:01;26.50;85.80
41256;DHT22;26989;45.524;10.938;2022-09-02T15:49:28;26.30;86.00
41256;DHT22;26989;45.524;10.938;2022-09-02T15:51:57;26.50;86.20
41256;DHT22;26989;45.524;10.938;2022-09-02T15:54:24;26.60;86.20
41256;DHT22;26989;45.524;10.938;2022-09-02T15:56:56;26.50;86.50
41256;DHT22;26989;45.524;10.938;2022-09-02T15:59:24;26.60;86.40
41256;DHT22;26989;45.524;10.938;2022-09-02T16:01:54;26.70;85.90
41256;DHT22;26989;45.524;10.938;2022-09-02T16:04:22;26.80;86.10
41256;DHT22;26989;45.524;10.938;2022-09-02T16:06:50;26.80;84.20
41256;DHT22;26989;45.524;10.938;2022-09-02T16:09:19;27.00;84.70
41256;DHT22;26989;45.524;10.938;2022-09-02T16:11:48;26.90;84.00
41256;DHT22;26989;45.524;10.938;2022-09-02T16:14:16;26.90;84.80
41256;DHT22;26989;45.524;10.938;2022-09-02T16:16:47;26.80;84.40
41256;DHT22;26989;45.524;10.938;2022-09-02T16:19:18;26.60;84.30
41256;DHT22;26989;45.524;10.938;2022-09-02T16:21:48;25.60;85.60
41256;DHT22;26989;45.524;10.938;2022-09-02T16:24:15;25.20;86.60
41256;DHT22;26989;45.524;10.938;2022-09-02T16:26:43;25.20;87.10
41256;DHT22;26989;45.524;10.938;2022-09-02T16:29:12;25.20;87.10
41256;DHT22;26989;45.524;10.938;2022-09-02T16:31:42;25.50;86.80
41256;DHT22;26989;45.524;10.938;2022-09-02T16:34:14;25.60;86.50
41256;DHT22;26989;45.524;10.938;2022-09-02T16:36:44;25.50;87.80
41256;DHT22;26989;45.524;10.938;2022-09-02T16:39:13;25.60;88.50
41256;DHT22;26989;45.524;10.938;2022-09-02T16:41:48;25.70;89.20
41256;DHT22;26989;45.524;10.938;2022-09-02T16:44:19;25.60;89.80
41256;DHT22;26989;45.524;10.938;2022-09-02T16:46:48;25.40;87.50
41256;DHT22;26989;45.524;10.938;2022-09-02T16:49:18;25.40;87.80
41256;DHT22;26989;45.524;10.938;2022-09-02T16:51:49;25.20;87.40
41256;DHT22;26989;45.524;10.938;2022-09-02T16:54:25;25.10;88.60
41256;DHT22;26989;45.524;10.938;2022-09-02T16:56:59;24.90;89.50
41256;DHT22;26989;45.524;10.938;2022-09-02T16:59:26;24.80;90.30
41256;DHT22;26989;45.524;10.938;2022-09-02T17:01:53;24.70;90.30
41256;DHT22;26989;45.524;10.938;2022-09-02T17:04:20;24.60;90.60
41256;DHT22;26989;45.524;10.938;2022-09-02T17:06:47;24.60;91.10
41256;DHT22;26989;45.524;10.938;2022-09-02T17:09:14;24.50;90.90
41256;DHT22;26989;45.524;10.938;2022-09-02T17:11:42;24.40;91.90
41256;DHT22;26989;45.524;10.938;2022-09-02T17:14:12;24.20;92.30
41256;DHT22;26989;45.524;10.938;2022-09-02T17:16:47;24.10;91.50
41256;DHT22;26989;45.524;10.938;2022-09-02T17:19:15;23.80;93.00
41256;DHT22;26989;45.524;10.938;2022-09-02T17:21:52;23.60;94.20
41256;DHT22;26989;45.524;10.938;2022-09-02T17:24:22;23.30;94.70
41256;DHT22;26989;45.524;10.938;2022-09-02T17:26:51;23.20;95.40
41256;DHT22;26989;45.524;10.938;2022-09-02T17:29:23;23.10;95.60
41256;DHT22;26989;45.524;10.938;2022-09-02T17:32:10;23.00;95.70
41256;DHT22;26989;45.524;10.938;2022-09-02T17:34:37;22.80;95.90
41256;DHT22;26989;45.524;10.938;2022-09-02T17:37:04;22.80;96.10
41256;DHT22;26989;45.524;10.938;2022-09-02T17:39:31;22.60;96.50
41256;DHT22;26989;45.524;10.938;2022-09-02T17:42:00;22.60;96.70
41256;DHT22;26989;45.524;10.938;2022-09-02T17:44:35;22.40;97.10
41256;DHT22;26989;45.524;10.938;2022-09-02T17:47:05;22.30;97.10
41256;DHT22;26989;45.524;10.938;2022-09-02T17:49:33;22.40;97.50
41256;DHT22;26989;45.524;10.938;2022-09-02T17:52:03;22.30;97.40
41256;DHT22;26989;45.524;10.938;2022-09-02T17:54:31;22.30;97.40
41256;DHT22;26989;45.524;10.938;2022-09-02T17:57:50;22.40;97.00